createdAt,value
2022-12-08T00:01:08.519Z,6.40
2022-12-08T00:03:39.651Z,7.10
2022-12-08T00:06:34.381Z,7.10
2022-12-08T00:09:23.019Z,6.40
2022-12-08T00:11:56.071Z,8.40
2022-12-08T00:16:56.780Z,9.30
2022-12-08T00:19:27.853Z,6.90
2022-12-08T00:21:58.667Z,6.80
2022-12-08T00:24:34.685Z,6.30
2022-12-08T00:27:05.263Z,7.10
2022-12-08T00:29:35.729Z,6.80
2022-12-08T00:32:06.784Z,8.60
2022-12-08T00:34:37.399Z,9.10
2022-12-08T00:37:07.830Z,9.30
2022-12-08T00:39:38.396Z,6.80
2022-12-08T00:42:15.347Z,5.20
2022-12-08T00:44:48.098Z,6.40
2022-12-08T00:47:23.441Z,9.40
2022-12-08T00:49:55.258Z,9.30
2022-12-08T00:52:25.818Z,9.70
2022-12-08T00:54:56.262Z,9.30
2022-12-08T00:57:26.700Z,9.00
2022-12-08T00:59:57.430Z,7.30
2022-12-08T01:02:27.953Z,7.50
2022-12-08T01:04:58.360Z,8.00
2022-12-08T01:07:30.263Z,9.50
2022-12-08T01:10:00.723Z,10.30
2022-12-08T01:12:34.151Z,10.00
2022-12-08T01:15:04.782Z,6.80
2022-12-08T01:17:35.326Z,7.30
2022-12-08T01:20:07.482Z,7.70
2022-12-08T01:22:37.920Z,7.10
2022-12-08T01:25:10.058Z,8.60
2022-12-08T01:27:40.554Z,9.80
2022-12-08T01:30:13.482Z,8.90
2022-12-08T01:35:13.667Z,8.60
2022-12-08T01:37:44.141Z,8.30
2022-12-08T01:40:14.749Z,6.60
2022-12-08T01:42:45.216Z,9.10
2022-12-08T01:45:22.731Z,9.10
2022-12-08T01:47:55.328Z,9.30
2022-12-08T01:50:26.281Z,7.60
2022-12-08T01:52:58.577Z,8.50
2022-12-08T01:55:32.313Z,8.60
2022-12-08T01:58:06.516Z,9.60
2022-12-08T02:00:36.916Z,10.10
2022-12-08T02:03:10.343Z,10.00
2022-12-08T02:05:42.157Z,6.90
2022-12-08T02:08:14.107Z,8.50
2022-12-08T02:10:44.940Z,7.80
2022-12-08T02:13:18.718Z,8.40
2022-12-08T02:15:55.508Z,9.80
2022-12-08T02:18:36.236Z,9.00
2022-12-08T02:21:10.994Z,8.40
2022-12-08T02:23:50.486Z,8.70
2022-12-08T02:26:50.436Z,7.60
2022-12-08T02:29:57.628Z,8.70
2022-12-08T02:32:45.835Z,8.50
2022-12-08T02:35:18.987Z,9.60
2022-12-08T02:37:55.269Z,10.10
2022-12-08T02:40:29.550Z,9.30
2022-12-08T02:43:01.768Z,7.50
2022-12-08T02:45:34.841Z,9.50
2022-12-08T02:48:05.805Z,10.40
2022-12-08T02:50:36.192Z,11.70
2022-12-08T02:55:41.599Z,13.70
2022-12-08T02:58:35.320Z,11.40
2022-12-08T03:01:21.251Z,11.10
2022-12-08T03:03:58.129Z,11.20
2022-12-08T03:06:33.745Z,10.80
2022-12-08T03:09:09.696Z,12.30
2022-12-08T03:11:43.646Z,13.40
2022-12-08T03:14:17.560Z,13.40
2022-12-08T03:16:50.016Z,11.20
2022-12-08T03:19:22.671Z,11.90
2022-12-08T03:22:00.387Z,11.60
2022-12-08T03:24:31.450Z,10.70
2022-12-08T03:27:04.900Z,12.00
2022-12-08T03:29:35.589Z,12.70
2022-12-08T03:32:11.982Z,13.20
2022-12-08T03:34:44.427Z,10.00
2022-12-08T03:37:15.012Z,10.00
2022-12-08T03:39:45.459Z,10.40
2022-12-08T03:42:15.913Z,9.90
2022-12-08T03:44:46.247Z,11.90
2022-12-08T03:47:16.606Z,11.70
2022-12-08T03:49:47.117Z,11.60
2022-12-08T03:52:17.627Z,11.10
2022-12-08T03:54:48.038Z,9.90
2022-12-08T03:57:18.469Z,9.40
2022-12-08T03:59:49.019Z,9.80
2022-12-08T04:02:19.661Z,11.80
2022-12-08T04:04:50.274Z,11.80
2022-12-08T04:07:20.725Z,11.60
2022-12-08T04:09:51.093Z,10.50
2022-12-08T04:12:21.592Z,11.40
2022-12-08T04:14:52.030Z,11.00
2022-12-08T04:17:22.448Z,10.80
2022-12-08T04:19:52.926Z,11.30
2022-12-08T04:22:23.834Z,13.50
2022-12-08T04:24:54.511Z,11.70
2022-12-08T04:27:24.953Z,10.80
2022-12-08T04:29:55.375Z,11.80
2022-12-08T04:32:25.904Z,11.20
2022-12-08T04:34:56.336Z,9.70
2022-12-08T04:37:26.787Z,13.10
2022-12-08T04:39:57.345Z,12.70
2022-12-08T04:42:27.737Z,14.10
2022-12-08T04:44:58.139Z,11.20
2022-12-08T04:47:28.543Z,13.80
2022-12-08T04:49:58.947Z,11.90
2022-12-08T04:52:29.768Z,11.20
2022-12-08T04:55:00.266Z,13.10
2022-12-08T04:57:30.890Z,14.10
2022-12-08T05:00:01.631Z,15.20
2022-12-08T05:02:32.741Z,13.20
2022-12-08T05:05:03.243Z,11.70
2022-12-08T05:07:33.732Z,12.80
2022-12-08T05:10:04.531Z,12.00
2022-12-08T05:12:35.120Z,13.30
2022-12-08T05:15:06.781Z,12.50
2022-12-08T05:17:37.355Z,13.60
2022-12-08T05:20:10.060Z,11.70
2022-12-08T05:22:40.511Z,12.10
2022-12-08T05:25:11.848Z,12.80
2022-12-08T05:27:43.059Z,13.10
2022-12-08T05:30:14.081Z,14.00
2022-12-08T05:32:44.512Z,12.10
2022-12-08T05:35:15.065Z,10.80
2022-12-08T05:37:45.522Z,11.70
2022-12-08T05:40:16.279Z,12.80
2022-12-08T05:42:46.667Z,11.40
2022-12-08T05:45:17.198Z,12.30
2022-12-08T05:47:47.652Z,13.20
2022-12-08T05:50:18.081Z,12.90
2022-12-08T05:52:48.576Z,11.30
2022-12-08T05:55:19.302Z,11.00
2022-12-08T05:57:49.829Z,11.00
2022-12-08T06:00:22.650Z,11.40
2022-12-08T06:02:53.277Z,10.70
2022-12-08T06:05:23.806Z,12.60
2022-12-08T06:07:54.327Z,11.70
2022-12-08T06:10:24.837Z,10.90
2022-12-08T06:12:55.267Z,9.70
2022-12-08T06:15:25.672Z,9.60
2022-12-08T06:17:56.180Z,8.10
2022-12-08T06:20:26.619Z,8.00
2022-12-08T06:22:58.389Z,10.40
2022-12-08T06:25:28.961Z,9.60
2022-12-08T06:27:59.692Z,9.80
2022-12-08T06:30:30.181Z,9.10
2022-12-08T06:33:01.115Z,9.30
2022-12-08T06:35:31.558Z,10.10
2022-12-08T06:38:01.998Z,11.00
2022-12-08T06:40:32.447Z,9.80
2022-12-08T06:43:02.858Z,9.00
2022-12-08T06:45:33.313Z,8.70
2022-12-08T06:48:05.264Z,8.20
2022-12-08T06:50:36.013Z,8.70
2022-12-08T06:53:06.501Z,10.00
2022-12-08T06:58:29.439Z,11.00
2022-12-08T07:01:03.762Z,8.50
2022-12-08T07:03:34.222Z,8.80
2022-12-08T07:06:04.953Z,8.60
2022-12-08T07:08:35.887Z,10.00
2022-12-08T07:11:10.664Z,10.80
2022-12-08T07:13:41.283Z,10.90
2022-12-08T07:16:13.045Z,10.10
2022-12-08T07:18:43.959Z,8.70
2022-12-08T07:21:15.861Z,7.50
2022-12-08T07:23:52.708Z,8.50
2022-12-08T07:26:27.955Z,9.80
2022-12-08T07:28:58.399Z,10.40
2022-12-08T07:31:29.237Z,8.10
2022-12-08T07:33:59.956Z,7.50
2022-12-08T07:36:30.735Z,9.20
2022-12-08T07:39:01.149Z,8.70
2022-12-08T07:41:31.595Z,9.40
2022-12-08T07:44:02.019Z,10.60
2022-12-08T07:46:32.653Z,9.50
2022-12-08T07:49:03.249Z,9.80
2022-12-08T07:51:33.924Z,9.30
2022-12-08T07:54:04.393Z,7.90
2022-12-08T07:56:35.328Z,8.10
2022-12-08T07:59:05.735Z,8.30
2022-12-08T08:01:36.827Z,8.40
2022-12-08T08:04:07.735Z,8.30
2022-12-08T08:06:38.285Z,8.00
2022-12-08T08:09:08.835Z,8.80
2022-12-08T08:11:39.642Z,7.20
2022-12-08T08:14:12.449Z,8.40
2022-12-08T08:16:46.846Z,9.40
2022-12-08T08:19:17.372Z,8.50
2022-12-08T08:21:47.787Z,7.80
2022-12-08T08:24:18.299Z,7.70
2022-12-08T08:26:48.752Z,8.40
2022-12-08T08:29:19.168Z,6.80
2022-12-08T08:31:49.573Z,8.80
2022-12-08T08:34:20.033Z,8.10
2022-12-08T08:36:50.509Z,9.10
2022-12-08T08:39:21.234Z,7.80
2022-12-08T08:41:51.720Z,7.70
2022-12-08T08:44:22.244Z,8.00
2022-12-08T08:46:52.881Z,7.00
2022-12-08T08:49:23.490Z,8.20
2022-12-08T08:51:54.547Z,9.00
2022-12-08T08:54:25.001Z,9.30
2022-12-08T08:56:55.529Z,7.90
2022-12-08T08:59:26.225Z,8.90
2022-12-08T09:01:56.771Z,7.80
2022-12-08T09:04:28.635Z,9.60
2022-12-08T09:06:59.451Z,10.30
2022-12-08T09:09:30.890Z,7.80
2022-12-08T09:12:01.425Z,9.30
2022-12-08T09:14:31.872Z,6.20
2022-12-08T09:17:02.337Z,8.70
2022-12-08T09:19:32.895Z,8.50
2022-12-08T09:22:03.332Z,9.90
2022-12-08T09:24:33.726Z,8.50
2022-12-08T09:27:04.249Z,8.40
2022-12-08T09:29:36.367Z,8.60
2022-12-08T09:32:07.445Z,8.30
2022-12-08T09:34:37.826Z,10.10
2022-12-08T09:37:08.287Z,8.80
2022-12-08T09:39:38.735Z,9.50
2022-12-08T09:42:10.962Z,9.60
2022-12-08T09:50:39.072Z,9.40
2022-12-08T09:53:13.613Z,9.60
2022-12-08T09:55:47.579Z,7.90
2022-12-08T09:58:23.088Z,7.90
2022-12-08T10:00:53.879Z,9.00
2022-12-08T10:03:26.064Z,8.50
2022-12-08T10:06:22.876Z,8.80
2022-12-08T10:09:00.203Z,8.00
2022-12-08T10:11:36.599Z,8.60
2022-12-08T10:14:16.588Z,7.80
2022-12-08T10:16:49.653Z,7.00
2022-12-08T10:19:22.429Z,8.30
2022-12-08T10:21:53.035Z,7.80
2022-12-08T10:24:32.160Z,7.40
2022-12-08T10:27:02.845Z,7.40
2022-12-08T10:29:33.386Z,7.80
2022-12-08T10:32:07.248Z,6.70
2022-12-08T10:34:37.714Z,7.30
2022-12-08T10:37:11.379Z,7.30
2022-12-08T10:39:43.767Z,5.70
2022-12-08T10:42:22.124Z,6.60
2022-12-08T10:44:59.288Z,4.30
2022-12-08T10:47:30.488Z,6.10
2022-12-08T10:50:25.549Z,6.20
2022-12-08T10:52:59.862Z,6.50
2022-12-08T11:01:33.480Z,5.30
2022-12-08T11:04:05.389Z,4.60
2022-12-08T11:06:38.105Z,4.70
2022-12-08T11:09:24.205Z,4.50
2022-12-08T11:11:56.430Z,4.70
2022-12-08T11:14:28.856Z,4.50
2022-12-08T11:17:06.329Z,4.90
2022-12-08T11:19:39.786Z,4.80
2022-12-08T11:22:25.904Z,4.00
2022-12-08T11:25:10.325Z,3.00
2022-12-08T11:27:43.548Z,4.60
2022-12-08T11:30:19.243Z,4.30
2022-12-08T11:32:51.464Z,4.40
2022-12-08T11:35:25.727Z,4.30
2022-12-08T11:38:13.542Z,4.20
2022-12-08T11:40:47.907Z,3.80
2022-12-08T11:43:25.185Z,3.80
2022-12-08T11:45:59.022Z,3.40
2022-12-08T11:48:33.137Z,4.20
2022-12-08T11:51:06.796Z,4.10
2022-12-08T11:53:41.024Z,3.90
2022-12-08T11:56:17.049Z,4.10
2022-12-08T11:58:50.491Z,3.10
2022-12-08T12:01:23.839Z,2.90
2022-12-08T12:04:00.802Z,3.60
2022-12-08T12:06:54.700Z,4.30
2022-12-08T12:09:35.922Z,3.60
2022-12-08T12:12:16.728Z,3.80
2022-12-08T12:15:05.243Z,3.90
2022-12-08T12:17:43.571Z,4.00
2022-12-08T12:20:19.350Z,3.70
2022-12-08T12:22:52.932Z,4.00
2022-12-08T12:25:24.941Z,3.00
2022-12-08T12:27:57.620Z,3.70
2022-12-08T12:30:29.587Z,3.90
2022-12-08T12:33:02.003Z,4.00
2022-12-08T12:35:38.344Z,3.70
2022-12-08T12:38:31.701Z,3.90
2022-12-08T12:41:04.075Z,3.60
2022-12-08T12:43:36.182Z,3.80
2022-12-08T12:46:43.887Z,4.10
2022-12-08T12:49:46.034Z,3.90
2022-12-08T12:52:47.124Z,3.40
2022-12-08T12:55:52.098Z,4.00
2022-12-08T12:58:37.591Z,3.60
2022-12-08T13:01:42.914Z,3.90
2022-12-08T13:04:13.582Z,3.70
2022-12-08T13:06:47.070Z,3.30
2022-12-08T13:09:24.529Z,4.00
2022-12-08T13:11:57.714Z,4.10
2022-12-08T13:14:32.339Z,3.80
2022-12-08T13:17:05.381Z,4.10
2022-12-08T13:19:36.146Z,3.60
2022-12-08T13:22:06.600Z,3.70
2022-12-08T13:24:37.789Z,3.90
2022-12-08T13:27:33.316Z,3.40
2022-12-08T13:30:39.716Z,3.10
2022-12-08T13:33:18.148Z,3.80
2022-12-08T13:35:54.640Z,3.20
2022-12-08T13:38:29.225Z,3.50
2022-12-08T13:41:00.208Z,3.20
2022-12-08T13:43:51.081Z,3.90
2022-12-08T13:51:23.909Z,3.60
2022-12-08T13:54:16.390Z,3.50
2022-12-08T13:56:43.409Z,3.90
2022-12-08T13:58:19.121Z,3.70
2022-12-08T14:00:58.612Z,2.90
2022-12-08T14:03:29.507Z,3.60
2022-12-08T14:06:15.785Z,3.80
2022-12-08T14:09:10.399Z,3.90
2022-12-08T14:11:42.297Z,3.50
2022-12-08T14:15:01.335Z,3.30
2022-12-08T14:17:24.673Z,3.40
2022-12-08T14:19:59.969Z,4.20
2022-12-08T14:22:37.264Z,3.40
2022-12-08T14:25:13.219Z,4.00
2022-12-08T14:27:44.338Z,3.20
2022-12-08T14:30:22.634Z,3.60
2022-12-08T14:32:55.852Z,2.90
2022-12-08T14:35:28.342Z,3.40
2022-12-08T14:38:00.410Z,3.30
2022-12-08T14:40:33.686Z,3.60
2022-12-08T14:43:17.141Z,3.40
2022-12-08T14:45:53.326Z,3.50
2022-12-08T14:48:28.456Z,3.30
2022-12-08T14:51:08.270Z,3.60
2022-12-08T14:53:44.109Z,3.10
2022-12-08T14:56:21.204Z,3.30
2022-12-08T14:59:03.692Z,2.80
2022-12-08T15:01:34.650Z,2.50
2022-12-08T15:04:10.711Z,2.00
2022-12-08T15:06:48.490Z,2.50
2022-12-08T15:09:28.998Z,2.80
2022-12-08T15:12:04.428Z,2.20
2022-12-08T15:14:36.290Z,1.90
2022-12-08T15:17:31.331Z,2.30
2022-12-08T15:20:04.108Z,2.30
2022-12-08T15:22:34.881Z,2.20
2022-12-08T15:25:06.552Z,2.40
2022-12-08T15:27:49.659Z,2.80
2022-12-08T15:30:21.511Z,2.70
2022-12-08T15:32:52.744Z,2.00
2022-12-08T15:35:23.555Z,2.40
2022-12-08T15:37:53.991Z,2.30
2022-12-08T15:40:26.965Z,2.70
2022-12-08T15:45:31.146Z,8.90
2022-12-08T15:48:01.639Z,7.70
2022-12-08T15:50:32.039Z,3.10
2022-12-08T15:53:05.202Z,2.80
2022-12-08T15:55:39.089Z,2.70
2022-12-08T15:58:52.250Z,2.60
2022-12-08T16:01:01.949Z,2.40
2022-12-08T16:09:29.599Z,3.30
2022-12-08T16:12:18.475Z,2.60
2022-12-08T16:17:43.390Z,2.60
2022-12-08T16:20:18.166Z,2.40
2022-12-08T16:22:56.814Z,2.40
2022-12-08T16:26:00.504Z,2.70
2022-12-08T16:28:52.864Z,3.00
2022-12-08T16:31:18.840Z,2.80
2022-12-08T16:33:53.144Z,2.40
2022-12-08T16:36:23.514Z,3.20
2022-12-08T16:38:53.935Z,4.10
2022-12-08T16:41:41.526Z,3.00
2022-12-08T16:44:11.889Z,3.90
2022-12-08T16:46:42.234Z,4.50
2022-12-08T16:49:15.482Z,4.40
2022-12-08T16:51:45.967Z,3.90
2022-12-08T16:54:16.380Z,3.90
2022-12-08T16:56:47.022Z,5.10
2022-12-08T16:59:17.430Z,4.70
2022-12-08T17:01:47.932Z,4.60
2022-12-08T17:04:33.696Z,4.80
2022-12-08T17:07:04.458Z,5.00
2022-12-08T17:09:34.902Z,4.30
2022-12-08T17:12:07.976Z,4.70
2022-12-08T17:14:38.427Z,4.90
2022-12-08T17:17:09.465Z,4.00
2022-12-08T17:19:40.044Z,4.30
2022-12-08T17:22:10.650Z,4.50
2022-12-08T17:24:41.096Z,4.80
2022-12-08T17:27:11.523Z,4.50
2022-12-08T17:29:42.048Z,4.30
2022-12-08T17:32:12.573Z,4.60
2022-12-08T17:34:43.032Z,5.50
2022-12-08T17:37:13.820Z,4.50
2022-12-08T17:39:49.751Z,5.70
2022-12-08T17:42:20.398Z,6.20
2022-12-08T17:44:50.804Z,5.60
2022-12-08T17:47:21.220Z,5.50
2022-12-08T17:49:56.011Z,5.70
2022-12-08T17:52:26.528Z,6.50
2022-12-08T17:54:57.196Z,5.70
2022-12-08T17:57:27.665Z,6.20
2022-12-08T17:59:58.198Z,5.90
2022-12-08T18:02:28.924Z,6.20
2022-12-08T18:04:59.428Z,5.90
2022-12-08T18:07:30.744Z,5.50
2022-12-08T18:10:01.234Z,5.40
2022-12-08T18:12:31.624Z,16.90
2022-12-08T18:15:02.155Z,7.50
2022-12-08T18:17:32.630Z,7.80
2022-12-08T18:20:03.299Z,6.60
2022-12-08T18:22:33.983Z,5.70
2022-12-08T18:25:04.459Z,6.20
2022-12-08T18:27:39.908Z,6.00
2022-12-08T18:30:18.133Z,5.30
2022-12-08T18:32:50.734Z,5.40
2022-12-08T18:35:24.626Z,5.50
2022-12-08T18:37:55.138Z,5.90
2022-12-08T18:40:25.580Z,6.20
2022-12-08T18:42:56.002Z,5.80
2022-12-08T18:45:26.430Z,6.30
2022-12-08T18:47:56.809Z,6.50
2022-12-08T18:50:27.339Z,6.00
2022-12-08T18:52:57.794Z,6.30
2022-12-08T18:55:28.289Z,5.90
2022-12-08T18:57:58.679Z,6.20
2022-12-08T19:00:29.134Z,7.20
2022-12-08T19:02:59.636Z,6.50
2022-12-08T19:05:30.194Z,6.60
2022-12-08T19:08:00.598Z,6.50
2022-12-08T19:10:32.161Z,5.40
2022-12-08T19:13:02.598Z,7.60
2022-12-08T19:15:33.336Z,8.40
2022-12-08T19:18:06.262Z,6.80
2022-12-08T19:20:36.714Z,6.20
2022-12-08T19:23:07.079Z,5.50
2022-12-08T19:25:37.694Z,6.10
2022-12-08T19:28:08.230Z,6.80
2022-12-08T19:30:38.867Z,6.80
2022-12-08T19:33:09.383Z,6.80
2022-12-08T19:35:46.250Z,6.40
2022-12-08T19:38:21.258Z,5.80
2022-12-08T19:41:09.232Z,6.30
2022-12-08T19:43:57.306Z,6.70
2022-12-08T19:46:27.961Z,7.30
2022-12-08T19:49:00.371Z,7.10
2022-12-08T19:51:33.219Z,6.50
2022-12-08T19:54:05.059Z,7.00
2022-12-08T19:56:42.252Z,5.90
2022-12-08T19:59:15.559Z,7.00
2022-12-08T20:01:48.061Z,6.40
2022-12-08T20:04:19.654Z,7.60
2022-12-08T20:06:50.984Z,7.30
2022-12-08T20:09:21.752Z,6.90
2022-12-08T20:11:54.612Z,6.80
2022-12-08T20:20:28.172Z,14.90
2022-12-08T20:23:09.380Z,14.50
2022-12-08T20:25:47.047Z,14.20
2022-12-08T20:28:19.029Z,13.60
2022-12-08T20:30:49.822Z,11.00
2022-12-08T20:33:38.067Z,11.10
2022-12-08T20:36:12.893Z,9.10
2022-12-08T20:38:43.434Z,9.70
2022-12-08T20:41:19.491Z,10.20
2022-12-08T20:44:01.438Z,10.10
2022-12-08T20:46:33.324Z,8.80
2022-12-08T20:49:04.313Z,8.50
2022-12-08T20:51:35.563Z,7.40
2022-12-08T20:54:06.393Z,7.90
2022-12-08T20:56:37.112Z,7.60
2022-12-08T20:59:07.870Z,8.50
2022-12-08T21:01:38.800Z,9.50
2022-12-08T21:04:11.080Z,7.70
2022-12-08T21:06:41.824Z,7.60
2022-12-08T21:09:15.070Z,7.00
2022-12-08T21:11:46.320Z,8.30
2022-12-08T21:14:21.990Z,8.20
2022-12-08T21:16:57.136Z,9.20
2022-12-08T21:19:33.489Z,8.80
2022-12-08T21:22:05.094Z,9.50
2022-12-08T21:24:38.139Z,10.00
2022-12-08T21:27:12.921Z,9.30
2022-12-08T21:29:49.386Z,10.30
2022-12-08T21:32:25.640Z,9.60
2022-12-08T21:35:01.652Z,7.40
2022-12-08T21:37:33.178Z,9.30
2022-12-08T21:40:06.670Z,10.50
2022-12-08T21:42:45.509Z,9.70
2022-12-08T21:45:18.844Z,7.80
2022-12-08T21:47:51.170Z,8.50
2022-12-08T21:50:24.118Z,7.70
2022-12-08T21:52:57.108Z,7.60
2022-12-08T21:58:02.299Z,7.90
2022-12-08T22:00:41.451Z,9.30
2022-12-08T22:03:16.632Z,11.10
2022-12-08T22:05:48.394Z,10.50
2022-12-08T22:16:18.381Z,8.00
2022-12-08T22:18:50.071Z,8.60
2022-12-08T22:21:20.729Z,9.90
2022-12-08T22:23:51.972Z,11.60
2022-12-08T22:26:24.142Z,10.80
2022-12-08T22:28:57.700Z,8.70
2022-12-08T22:31:28.482Z,8.30
2022-12-08T22:34:01.351Z,8.30
2022-12-08T22:36:31.911Z,8.60
2022-12-08T22:39:04.126Z,8.40
2022-12-08T22:41:34.809Z,7.70
2022-12-08T22:44:07.965Z,9.30
2022-12-08T22:46:38.631Z,11.90
2022-12-08T22:49:09.427Z,11.10
2022-12-08T22:51:40.305Z,9.00
2022-12-08T22:54:12.482Z,8.60
2022-12-08T22:56:43.098Z,8.70
2022-12-08T22:59:13.547Z,8.20
2022-12-08T23:01:43.933Z,7.10
2022-12-08T23:04:18.036Z,9.20
2022-12-08T23:06:48.988Z,12.30
2022-12-08T23:09:19.617Z,11.90
2022-12-08T23:11:50.060Z,9.30
2022-12-08T23:14:20.420Z,9.50
2022-12-08T23:16:51.305Z,9.70
2022-12-08T23:19:21.725Z,8.70
2022-12-08T23:21:52.171Z,9.70
2022-12-08T23:24:22.573Z,11.20
2022-12-08T23:26:53.139Z,11.70
2022-12-08T23:29:23.643Z,9.80
2022-12-08T23:31:54.189Z,10.10
2022-12-08T23:34:25.480Z,10.10
2022-12-08T23:36:56.213Z,10.40
2022-12-08T23:39:26.672Z,9.70
2022-12-08T23:41:57.358Z,11.10
2022-12-08T23:44:28.010Z,11.30
2022-12-08T23:46:58.771Z,10.00
2022-12-08T23:49:36.742Z,9.60
2022-12-08T23:52:07.571Z,10.10
2022-12-08T23:54:38.283Z,10.30
2022-12-08T23:57:08.911Z,11.80
2022-12-08T23:59:39.619Z,11.60
